首页
METAR-TAF:

METAR-TAF

机场 :

大邱國際機場

大邱廣域, 大韩民国

纬度: 35-54N, 经度: 128-39E, 海拔: 35米

当前天气观测

该预报发布于37分钟前的17:00 UTC
风速1节,风向西北
温度 27°C
湿度 89%
气压 1007 hPa
能见度10公里或以上
散云层高于2500英尺
多云层高于4000英尺

METAR: RKTN 241700Z 31001KT 9999 SCT025 BKN040 27/25 Q1007

时间: 02:37 (17:37 UTC)

预报

该预报发布于6小时和37分钟前的11:00 UTC
预报有效从24日的 12点(UTC)到 25日的 18点(UTC)
风速6节,风向南转西南
能见度10公里或以上
多云层高于3000英尺
多云层高于20000英尺

TAF: RKTN 241100Z 2412/2518 21006KT 9999 BKN030 BKN200 TN26/2421Z TX34/2506Z

超过4000个机场的气象观测和天气预报(METAR&TAF报告)。

可查询的气象台以黄色和红色小点在地图上表示。

将鼠标移到小点上方,可查看气象台名称。

然后点击查看天气观测和预报。

如需切换地图:点击带黑十字的绿色按钮放大地图;点击带横线的绿色按钮缩小地图;或者点击绿色箭头查看邻近地区的地图。


METAR-TAF: